createdAt,value
2023-05-14T00:01:18.143Z,96.48
2023-05-14T00:03:44.973Z,96.85
2023-05-14T00:06:11.789Z,96.77
2023-05-14T00:08:38.526Z,96.36
2023-05-14T00:11:05.635Z,96.35
2023-05-14T00:13:32.632Z,96.13
2023-05-14T00:15:59.351Z,96.23
2023-05-14T00:18:26.224Z,96.06
2023-05-14T00:20:55.073Z,95.38
2023-05-14T00:23:24.916Z,97.16
2023-05-14T00:25:51.669Z,97.30
2023-05-14T00:28:18.417Z,96.72
2023-05-14T00:30:45.514Z,97.21
2023-05-14T00:33:12.329Z,98.90
2023-05-14T00:35:39.254Z,99.14
2023-05-14T00:38:06.157Z,99.60
2023-05-14T00:40:32.982Z,99.62
2023-05-14T00:42:59.697Z,99.74
2023-05-14T00:45:26.435Z,99.33
2023-05-14T00:47:54.224Z,100.00
2023-05-14T00:50:21.499Z,99.91
2023-05-14T00:52:48.452Z,100.00
2023-05-14T00:55:16.897Z,100.00
2023-05-14T00:57:43.804Z,100.00
2023-05-14T01:02:52.328Z,100.00
2023-05-14T01:05:19.490Z,100.00
2023-05-14T01:08:05.618Z,99.98
2023-05-14T01:10:42.878Z,100.00
2023-05-14T01:13:14.329Z,100.00
2023-05-14T01:15:42.198Z,100.00
2023-05-14T01:18:11.664Z,100.00
2023-05-14T01:20:38.471Z,100.00
2023-05-14T01:23:05.274Z,100.00
2023-05-14T01:25:32.484Z,100.00
2023-05-14T01:28:24.793Z,100.00
2023-05-14T01:30:58.365Z,100.00
2023-05-14T01:33:26.654Z,100.00
2023-05-14T01:35:54.504Z,100.00
2023-05-14T01:38:22.073Z,100.00
2023-05-14T01:40:49.399Z,100.00
2023-05-14T01:43:16.551Z,100.00
2023-05-14T01:45:43.938Z,100.00
2023-05-14T01:48:11.083Z,100.00
2023-05-14T01:50:38.102Z,100.00
2023-05-14T01:53:04.877Z,100.00
2023-05-14T01:55:31.603Z,100.00
2023-05-14T01:57:58.318Z,100.00
2023-05-14T02:00:26.338Z,100.00
2023-05-14T02:02:53.385Z,100.00
2023-05-14T02:05:20.394Z,100.00
2023-05-14T02:07:47.210Z,100.00
2023-05-14T02:10:13.906Z,100.00
2023-05-14T02:12:40.743Z,100.00
2023-05-14T02:15:09.283Z,100.00
2023-05-14T02:17:36.056Z,100.00
2023-05-14T02:20:02.990Z,100.00
2023-05-14T02:22:29.691Z,100.00
2023-05-14T02:24:56.409Z,100.00
2023-05-14T02:27:23.140Z,100.00
2023-05-14T02:29:50.224Z,100.00
2023-05-14T02:32:16.991Z,100.00
2023-05-14T02:34:43.835Z,100.00
2023-05-14T02:37:10.541Z,100.00
2023-05-14T02:39:37.301Z,100.00
2023-05-14T02:42:04.151Z,100.00
2023-05-14T02:44:32.041Z,100.00
2023-05-14T02:46:58.925Z,100.00
2023-05-14T02:49:25.743Z,100.00
2023-05-14T02:51:54.570Z,100.00
2023-05-14T02:54:21.278Z,100.00
2023-05-14T02:56:48.154Z,100.00
2023-05-14T02:59:14.897Z,100.00
2023-05-14T03:01:42.333Z,100.00
2023-05-14T03:04:09.482Z,100.00
2023-05-14T03:06:36.227Z,100.00
2023-05-14T03:09:03.063Z,100.00
2023-05-14T03:11:29.882Z,100.00
2023-05-14T03:13:56.677Z,100.00
2023-05-14T03:16:23.434Z,100.00
2023-05-14T03:18:50.660Z,100.00
2023-05-14T03:21:17.534Z,100.00
2023-05-14T03:23:44.584Z,100.00
2023-05-14T03:26:11.415Z,100.00
2023-05-14T03:28:38.139Z,100.00
2023-05-14T03:31:05.180Z,100.00
2023-05-14T03:33:32.171Z,100.00
2023-05-14T03:35:58.853Z,100.00
2023-05-14T03:38:25.685Z,100.00
2023-05-14T03:40:52.561Z,100.00
2023-05-14T03:43:19.351Z,100.00
2023-05-14T03:45:46.113Z,100.00
2023-05-14T03:48:13.302Z,100.00
2023-05-14T03:50:40.662Z,100.00
2023-05-14T03:53:07.589Z,100.00
2023-05-14T03:55:34.374Z,100.00
2023-05-14T03:58:02.344Z,100.00
2023-05-14T04:00:29.757Z,100.00
2023-05-14T04:02:56.620Z,100.00
2023-05-14T04:05:24.051Z,100.00
2023-05-14T04:07:52.933Z,100.00
2023-05-14T04:10:19.851Z,100.00
2023-05-14T04:12:46.584Z,100.00
2023-05-14T04:15:13.457Z,100.00
2023-05-14T04:17:40.507Z,100.00
2023-05-14T04:20:08.347Z,100.00
2023-05-14T04:22:35.308Z,100.00
2023-05-14T04:25:02.319Z,100.00
2023-05-14T04:27:29.101Z,100.00
2023-05-14T04:29:56.130Z,100.00
2023-05-14T04:32:23.587Z,100.00
2023-05-14T04:34:51.447Z,100.00
2023-05-14T04:37:18.359Z,100.00
2023-05-14T04:39:45.930Z,100.00
2023-05-14T04:42:12.872Z,100.00
2023-05-14T04:44:39.705Z,100.00
2023-05-14T04:47:07.349Z,100.00
2023-05-14T04:49:34.208Z,100.00
2023-05-14T04:52:01.953Z,100.00
2023-05-14T04:54:28.803Z,100.00
2023-05-14T04:56:56.275Z,100.00
2023-05-14T04:59:23.136Z,100.00
2023-05-14T05:01:51.954Z,100.00
2023-05-14T05:04:19.431Z,100.00
2023-05-14T05:06:49.434Z,100.00
2023-05-14T05:09:18.547Z,100.00
2023-05-14T05:11:45.444Z,100.00
2023-05-14T05:14:12.169Z,100.00
2023-05-14T05:16:39.005Z,100.00
2023-05-14T05:19:06.101Z,100.00
2023-05-14T05:21:33.723Z,100.00
2023-05-14T05:24:00.638Z,100.00
2023-05-14T05:26:27.726Z,100.00
2023-05-14T05:28:54.601Z,100.00
2023-05-14T05:31:21.602Z,100.00
2023-05-14T05:33:48.564Z,100.00
2023-05-14T05:36:15.318Z,100.00
2023-05-14T05:38:42.885Z,100.00
2023-05-14T05:41:09.625Z,100.00
2023-05-14T05:43:36.947Z,100.00
2023-05-14T05:46:03.774Z,100.00
2023-05-14T05:48:30.864Z,100.00
2023-05-14T05:50:58.167Z,100.00
2023-05-14T05:53:25.230Z,100.00
2023-05-14T05:55:52.169Z,100.00
2023-05-14T05:58:19.557Z,100.00
2023-05-14T06:00:47.701Z,100.00
2023-05-14T06:03:14.571Z,100.00
2023-05-14T06:05:41.932Z,100.00
2023-05-14T06:08:09.320Z,100.00
2023-05-14T06:10:36.680Z,100.00
2023-05-14T06:13:04.288Z,100.00
2023-05-14T06:15:31.007Z,100.00
2023-05-14T06:17:57.992Z,100.00
2023-05-14T06:20:25.072Z,100.00
2023-05-14T06:22:52.519Z,100.00
2023-05-14T06:25:19.513Z,100.00
2023-05-14T06:27:46.834Z,100.00
2023-05-14T06:30:14.295Z,100.00
2023-05-14T06:32:41.147Z,100.00
2023-05-14T06:35:09.189Z,100.00
2023-05-14T06:37:36.093Z,100.00
2023-05-14T06:40:04.223Z,100.00
2023-05-14T06:42:31.052Z,100.00
2023-05-14T06:44:57.888Z,100.00
2023-05-14T06:47:25.206Z,100.00
2023-05-14T06:49:52.521Z,100.00
2023-05-14T06:52:19.305Z,100.00
2023-05-14T06:54:46.310Z,96.94
2023-05-14T06:57:13.816Z,93.66
2023-05-14T06:59:40.529Z,95.94
2023-05-14T07:02:07.530Z,91.39
2023-05-14T07:04:34.674Z,91.92
2023-05-14T07:07:01.863Z,91.95
2023-05-14T07:09:29.221Z,90.84
2023-05-14T07:11:56.090Z,89.07
2023-05-14T07:14:22.874Z,89.08
2023-05-14T07:16:49.670Z,88.95
2023-05-14T07:19:16.613Z,88.88
2023-05-14T07:21:43.931Z,85.90
2023-05-14T07:24:10.769Z,86.74
2023-05-14T07:26:37.856Z,86.35
2023-05-14T07:29:04.628Z,85.93
2023-05-14T07:31:32.260Z,85.73
2023-05-14T07:33:59.715Z,81.67
2023-05-14T07:36:26.536Z,80.79
2023-05-14T07:38:53.259Z,81.50
2023-05-14T07:41:20.137Z,78.88
2023-05-14T07:43:46.890Z,77.62
2023-05-14T07:46:14.290Z,76.36
2023-05-14T07:48:41.336Z,80.46
2023-05-14T07:51:08.117Z,79.44
2023-05-14T07:53:34.946Z,78.14
2023-05-14T07:56:01.794Z,77.94
2023-05-14T07:58:29.208Z,75.14
2023-05-14T08:00:56.874Z,77.14
2023-05-14T08:03:23.872Z,74.68
2023-05-14T08:05:52.456Z,74.95
2023-05-14T08:08:19.328Z,74.62
2023-05-14T08:10:46.073Z,70.33
2023-05-14T08:13:12.767Z,73.07
2023-05-14T08:15:39.621Z,73.18
2023-05-14T08:18:06.619Z,72.29
2023-05-14T08:20:33.592Z,72.20
2023-05-14T08:23:00.377Z,72.95
2023-05-14T08:25:27.226Z,72.07
2023-05-14T08:27:54.541Z,69.68
2023-05-14T08:30:22.373Z,71.90
2023-05-14T08:32:49.830Z,69.63
2023-05-14T08:35:17.701Z,71.24
2023-05-14T08:37:46.521Z,69.09
2023-05-14T08:40:13.983Z,70.32
2023-05-14T08:42:45.263Z,69.24
2023-05-14T08:45:22.298Z,69.90
2023-05-14T08:47:50.976Z,71.53
2023-05-14T08:50:19.906Z,70.74
2023-05-14T08:52:49.334Z,71.10
2023-05-14T08:55:16.693Z,71.05
2023-05-14T08:57:46.925Z,72.19
2023-05-14T09:00:15.894Z,68.19
2023-05-14T09:02:44.958Z,68.41
2023-05-14T09:05:12.756Z,68.09
2023-05-14T09:07:39.903Z,68.76
2023-05-14T09:10:09.390Z,69.71
2023-05-14T09:12:36.674Z,66.31
2023-05-14T09:15:05.167Z,68.33
2023-05-14T09:17:32.378Z,67.05
2023-05-14T09:19:59.815Z,65.84
2023-05-14T09:22:32.927Z,65.91
2023-05-14T09:25:07.330Z,67.34
2023-05-14T09:27:34.503Z,65.33
2023-05-14T09:30:14.400Z,63.70
2023-05-14T09:32:50.636Z,65.57
2023-05-14T09:35:18.922Z,64.52
2023-05-14T09:37:49.545Z,63.64
2023-05-14T09:40:17.555Z,62.61
2023-05-14T09:42:44.495Z,63.97
2023-05-14T09:45:11.864Z,62.79
2023-05-14T09:47:39.543Z,63.23
2023-05-14T09:50:08.347Z,63.81
2023-05-14T09:52:35.948Z,63.09
2023-05-14T09:55:03.041Z,60.75
2023-05-14T09:57:29.988Z,61.98
2023-05-14T09:59:56.864Z,60.92
2023-05-14T10:02:34.203Z,60.95
2023-05-14T10:05:02.977Z,60.27
2023-05-14T10:07:34.130Z,58.55
2023-05-14T10:10:03.821Z,57.89
2023-05-14T10:12:34.907Z,59.09
2023-05-14T10:15:13.964Z,58.70
2023-05-14T10:17:41.839Z,60.31
2023-05-14T10:20:10.407Z,57.26
2023-05-14T10:22:37.410Z,57.96
2023-05-14T10:25:04.955Z,57.28
2023-05-14T10:27:32.022Z,58.52
2023-05-14T10:29:58.838Z,60.06
2023-05-14T10:32:26.723Z,58.20
2023-05-14T10:34:54.008Z,58.46
2023-05-14T10:37:25.770Z,57.53
2023-05-14T10:40:13.370Z,58.81
2023-05-14T10:42:41.215Z,58.39
2023-05-14T10:45:09.300Z,58.46
2023-05-14T10:47:37.586Z,56.41
2023-05-14T10:50:06.900Z,58.48
2023-05-14T10:52:35.639Z,57.15
2023-05-14T10:55:10.583Z,56.43
2023-05-14T10:57:39.259Z,56.84
2023-05-14T11:00:09.962Z,58.51
2023-05-14T11:02:38.442Z,55.82
2023-05-14T11:05:14.453Z,57.00
2023-05-14T11:07:46.209Z,58.32
2023-05-14T11:10:14.853Z,54.53
2023-05-14T11:12:47.464Z,55.33
2023-05-14T11:15:22.014Z,54.91
2023-05-14T11:17:50.644Z,53.16
2023-05-14T11:20:18.460Z,53.18
2023-05-14T11:22:46.332Z,55.24
2023-05-14T11:25:16.494Z,54.79
2023-05-14T11:27:44.696Z,53.92
2023-05-14T11:30:21.099Z,51.49
2023-05-14T11:32:49.765Z,52.72
2023-05-14T11:35:17.565Z,52.60
2023-05-14T11:37:50.983Z,53.48
2023-05-14T11:40:18.203Z,52.15
2023-05-14T11:42:45.632Z,51.85
2023-05-14T11:45:13.407Z,52.30
2023-05-14T11:47:41.644Z,52.06
2023-05-14T11:50:21.237Z,53.22
2023-05-14T11:52:50.910Z,51.13
2023-05-14T11:55:18.141Z,50.82
2023-05-14T11:57:45.348Z,50.77
2023-05-14T12:00:22.039Z,50.54
2023-05-14T12:02:51.017Z,50.85
2023-05-14T12:05:24.430Z,51.77
2023-05-14T12:07:59.758Z,54.20
2023-05-14T12:10:26.639Z,54.50
2023-05-14T12:12:53.783Z,52.72
2023-05-14T12:15:22.122Z,51.75
2023-05-14T12:17:52.553Z,50.95
2023-05-14T12:20:19.415Z,51.37
2023-05-14T12:22:46.304Z,48.39
2023-05-14T12:25:14.296Z,50.51
2023-05-14T12:27:41.727Z,47.93
2023-05-14T12:32:42.191Z,46.79
2023-05-14T12:35:09.741Z,48.53
2023-05-14T12:37:37.768Z,50.36
2023-05-14T12:40:09.655Z,50.39
2023-05-14T12:42:37.230Z,51.72
2023-05-14T12:45:07.593Z,49.54
2023-05-14T12:47:34.821Z,50.21
2023-05-14T12:50:01.882Z,50.57
2023-05-14T12:52:37.625Z,48.79
2023-05-14T12:55:06.827Z,51.23
2023-05-14T12:57:35.909Z,52.03
2023-05-14T13:00:07.121Z,52.67
2023-05-14T13:02:41.992Z,53.50
2023-05-14T13:05:10.400Z,52.27
2023-05-14T13:07:37.366Z,54.63
2023-05-14T13:10:06.093Z,52.74
2023-05-14T13:12:33.200Z,52.53
2023-05-14T13:15:00.078Z,54.28
2023-05-14T13:17:27.026Z,54.33
2023-05-14T13:19:53.865Z,53.35
2023-05-14T13:22:24.066Z,54.08
2023-05-14T13:24:50.997Z,54.29
2023-05-14T13:27:17.845Z,54.24
2023-05-14T13:29:44.593Z,53.73
2023-05-14T13:32:11.452Z,51.21
2023-05-14T13:34:38.244Z,52.45
2023-05-14T13:37:05.062Z,51.17
2023-05-14T13:39:31.795Z,52.24
2023-05-14T13:41:58.740Z,51.48
2023-05-14T13:44:25.588Z,52.90
2023-05-14T13:46:52.738Z,52.54
2023-05-14T13:49:19.825Z,48.84
2023-05-14T13:51:46.524Z,48.84
2023-05-14T13:54:13.553Z,49.73
2023-05-14T13:56:40.531Z,50.00
2023-05-14T13:59:07.408Z,48.46
2023-05-14T14:01:34.139Z,49.00
2023-05-14T14:04:01.143Z,48.27
2023-05-14T14:06:27.879Z,47.67
2023-05-14T14:08:54.966Z,50.39
2023-05-14T14:11:22.499Z,48.31
2023-05-14T14:13:49.345Z,50.88
2023-05-14T14:16:16.517Z,50.98
2023-05-14T14:18:43.602Z,51.01
2023-05-14T14:21:10.760Z,53.42
2023-05-14T14:23:37.656Z,50.47
2023-05-14T14:26:04.648Z,49.12
2023-05-14T14:28:31.663Z,47.51
2023-05-14T14:31:00.842Z,46.79
2023-05-14T14:33:28.017Z,49.28
2023-05-14T14:35:54.952Z,48.49
2023-05-14T14:38:21.888Z,49.34
2023-05-14T14:40:49.276Z,51.58
2023-05-14T14:43:16.785Z,51.97
2023-05-14T14:45:48.232Z,52.63
2023-05-14T14:48:34.736Z,53.63
2023-05-14T14:51:01.815Z,51.65
2023-05-14T14:53:28.957Z,50.58
2023-05-14T14:55:56.073Z,48.64
2023-05-14T14:58:23.302Z,47.26
2023-05-14T15:00:55.356Z,46.77
2023-05-14T15:03:23.123Z,45.38
2023-05-14T15:05:50.188Z,45.34
2023-05-14T15:08:17.196Z,45.02
2023-05-14T15:10:45.268Z,44.29
2023-05-14T15:13:15.858Z,43.47
2023-05-14T15:15:42.603Z,43.40
2023-05-14T15:18:09.831Z,45.38
2023-05-14T15:20:36.560Z,46.79
2023-05-14T15:23:03.547Z,47.88
2023-05-14T15:25:30.375Z,48.60
2023-05-14T15:27:57.943Z,48.11
2023-05-14T15:30:24.722Z,51.11
2023-05-14T15:32:51.933Z,51.42
2023-05-14T15:35:19.009Z,52.57
2023-05-14T15:37:45.918Z,51.80
2023-05-14T15:40:13.406Z,51.54
2023-05-14T15:42:44.527Z,52.41
2023-05-14T15:45:12.977Z,53.08
2023-05-14T15:47:40.957Z,52.62
2023-05-14T15:50:08.954Z,53.85
2023-05-14T15:52:40.463Z,52.70
2023-05-14T15:55:11.813Z,53.49
2023-05-14T15:57:38.812Z,53.06
2023-05-14T16:00:10.712Z,51.94
2023-05-14T16:02:40.537Z,53.07
2023-05-14T16:05:08.760Z,51.92
2023-05-14T16:07:36.638Z,54.32
2023-05-14T16:10:07.023Z,51.83
2023-05-14T16:12:34.327Z,50.05
2023-05-14T16:15:01.562Z,50.79
2023-05-14T16:17:28.965Z,51.09
2023-05-14T16:19:56.615Z,51.15
2023-05-14T16:22:23.722Z,52.03
2023-05-14T16:24:50.582Z,51.01
2023-05-14T16:27:19.319Z,50.59
2023-05-14T16:29:46.260Z,50.28
2023-05-14T16:32:13.235Z,51.63
2023-05-14T16:34:40.332Z,53.43
2023-05-14T16:37:07.394Z,52.28
2023-05-14T16:39:34.630Z,52.64
2023-05-14T16:42:01.389Z,53.16
2023-05-14T16:44:28.197Z,52.93
2023-05-14T16:46:55.072Z,53.46
2023-05-14T16:49:23.284Z,53.47
2023-05-14T16:51:50.505Z,53.54
2023-05-14T16:54:17.361Z,53.67
2023-05-14T16:56:48.808Z,53.61
2023-05-14T16:59:16.658Z,54.82
2023-05-14T17:01:45.244Z,54.37
2023-05-14T17:04:12.182Z,56.08
2023-05-14T17:06:38.919Z,55.83
2023-05-14T17:09:05.918Z,55.44
2023-05-14T17:11:32.731Z,54.26
2023-05-14T17:13:59.379Z,54.33
2023-05-14T17:16:27.329Z,53.98
2023-05-14T17:18:54.355Z,54.01
2023-05-14T17:21:21.089Z,53.71
2023-05-14T17:23:47.896Z,55.73
2023-05-14T17:26:14.658Z,55.29
2023-05-14T17:28:41.367Z,54.32
2023-05-14T17:31:08.186Z,54.13
2023-05-14T17:33:34.899Z,55.46
2023-05-14T17:36:01.762Z,56.62
2023-05-14T17:38:28.520Z,54.49
2023-05-14T17:40:55.608Z,54.33
2023-05-14T17:43:22.324Z,55.58
2023-05-14T17:48:19.712Z,56.66
2023-05-14T17:50:46.415Z,55.97
2023-05-14T17:53:13.218Z,57.68
2023-05-14T17:55:43.891Z,57.33
2023-05-14T17:58:15.661Z,57.17
2023-05-14T18:00:43.912Z,57.29
2023-05-14T18:03:10.945Z,57.22
2023-05-14T18:05:37.713Z,57.59
2023-05-14T18:08:04.614Z,57.48
2023-05-14T18:10:31.411Z,59.79
2023-05-14T18:12:58.478Z,61.49
2023-05-14T18:15:26.094Z,61.74
2023-05-14T18:17:53.194Z,62.24
2023-05-14T18:20:20.740Z,62.62
2023-05-14T18:22:47.467Z,62.33
2023-05-14T18:25:14.375Z,62.41
2023-05-14T18:27:44.950Z,62.52
2023-05-14T18:30:13.589Z,63.14
2023-05-14T18:32:41.700Z,62.81
2023-05-14T18:35:08.942Z,64.55
2023-05-14T18:37:35.802Z,64.80
2023-05-14T18:40:04.502Z,66.18
2023-05-14T18:42:31.314Z,66.50
2023-05-14T18:44:58.088Z,66.86
2023-05-14T18:47:24.994Z,66.27
2023-05-14T18:49:55.469Z,66.12
2023-05-14T18:52:23.138Z,64.88
2023-05-14T18:54:51.381Z,64.89
2023-05-14T18:57:18.214Z,66.30
2023-05-14T18:59:44.943Z,66.04
2023-05-14T19:02:11.655Z,66.73
2023-05-14T19:04:50.632Z,69.13
2023-05-14T19:07:19.057Z,68.11
2023-05-14T19:09:46.094Z,70.09
2023-05-14T19:12:13.277Z,67.99
2023-05-14T19:14:40.308Z,69.63
2023-05-14T19:17:07.049Z,69.88
2023-05-14T19:19:33.999Z,71.64
2023-05-14T19:22:00.752Z,73.80
2023-05-14T19:24:27.530Z,72.87
2023-05-14T19:26:54.345Z,77.15
2023-05-14T19:29:21.060Z,77.00
2023-05-14T19:31:47.846Z,80.03
2023-05-14T19:34:14.673Z,83.34
2023-05-14T19:36:41.995Z,85.04
2023-05-14T19:39:08.740Z,86.62
2023-05-14T19:41:35.535Z,84.85
2023-05-14T19:44:02.278Z,84.40
2023-05-14T19:46:29.188Z,85.46
2023-05-14T19:48:55.871Z,86.31
2023-05-14T19:51:22.647Z,86.43
2023-05-14T19:53:49.385Z,88.23
2023-05-14T19:56:16.326Z,90.76
2023-05-14T19:58:43.912Z,89.59
2023-05-14T20:01:12.283Z,90.04
2023-05-14T20:03:39.290Z,89.30
2023-05-14T20:06:07.438Z,90.03
2023-05-14T20:08:34.180Z,90.45
2023-05-14T20:11:01.121Z,90.20
2023-05-14T20:13:27.926Z,92.10
2023-05-14T20:15:55.371Z,91.69
2023-05-14T20:18:22.224Z,92.38
2023-05-14T20:20:49.406Z,91.85
2023-05-14T20:23:16.188Z,90.49
2023-05-14T20:25:43.335Z,91.61
2023-05-14T20:28:10.736Z,90.34
2023-05-14T20:30:37.681Z,88.87
2023-05-14T20:33:04.614Z,89.08
2023-05-14T20:35:31.452Z,87.17
2023-05-14T20:37:58.861Z,89.24
2023-05-14T20:40:25.715Z,91.75
2023-05-14T20:42:52.495Z,90.97
2023-05-14T20:45:19.306Z,90.11
2023-05-14T20:47:46.421Z,90.27
2023-05-14T20:50:13.978Z,90.01
2023-05-14T20:52:41.057Z,91.64
2023-05-14T20:55:08.818Z,92.87
2023-05-14T20:57:35.807Z,91.56
2023-05-14T21:00:07.265Z,90.06
2023-05-14T21:02:34.856Z,90.51
2023-05-14T21:05:01.856Z,91.00
2023-05-14T21:07:29.039Z,90.01
2023-05-14T21:09:55.915Z,92.00
2023-05-14T21:12:22.880Z,93.44
2023-05-14T21:14:49.572Z,93.17
2023-05-14T21:17:16.265Z,91.77
2023-05-14T21:19:43.014Z,91.48
2023-05-14T21:22:09.696Z,89.91
2023-05-14T21:24:36.432Z,89.90
2023-05-14T21:27:03.158Z,90.48
2023-05-14T21:29:29.950Z,91.79
2023-05-14T21:31:56.687Z,91.39
2023-05-14T21:34:23.401Z,91.86
2023-05-14T21:36:50.362Z,92.37
2023-05-14T21:39:17.067Z,91.57
2023-05-14T21:41:43.845Z,90.80
2023-05-14T21:44:10.591Z,91.32
2023-05-14T21:46:37.272Z,92.75
2023-05-14T21:49:04.032Z,91.34
2023-05-14T21:51:32.400Z,92.11
2023-05-14T21:53:59.195Z,93.80
2023-05-14T21:56:26.593Z,92.88
2023-05-14T21:58:55.755Z,93.24
2023-05-14T22:01:22.534Z,94.19
2023-05-14T22:03:49.420Z,94.71
2023-05-14T22:06:16.141Z,95.16
2023-05-14T22:08:42.922Z,95.07
2023-05-14T22:11:09.635Z,94.96
2023-05-14T22:13:41.108Z,96.35
2023-05-14T22:16:13.307Z,96.56
2023-05-14T22:18:40.904Z,96.90
2023-05-14T22:21:07.717Z,96.50
2023-05-14T22:23:34.600Z,97.19
2023-05-14T22:26:01.570Z,96.57
2023-05-14T22:28:28.317Z,98.09
2023-05-14T22:30:56.783Z,96.96
2023-05-14T22:33:23.551Z,99.29
2023-05-14T22:35:50.293Z,97.85
2023-05-14T22:38:17.017Z,96.80
2023-05-14T22:40:43.752Z,96.65
2023-05-14T22:43:10.937Z,96.74
2023-05-14T22:45:37.670Z,95.91
2023-05-14T22:48:04.629Z,98.18
2023-05-14T22:50:31.423Z,97.68
2023-05-14T22:52:58.369Z,97.95
2023-05-14T22:55:25.193Z,97.33
2023-05-14T22:57:52.104Z,97.79
2023-05-14T23:00:19.054Z,98.00
2023-05-14T23:02:45.962Z,98.01
2023-05-14T23:05:12.741Z,99.94
2023-05-14T23:07:39.557Z,98.25
2023-05-14T23:10:06.943Z,99.02
2023-05-14T23:12:33.794Z,99.75
2023-05-14T23:15:00.570Z,98.44
2023-05-14T23:17:27.392Z,97.06
2023-05-14T23:19:54.335Z,97.52
2023-05-14T23:22:21.169Z,98.78
2023-05-14T23:24:47.864Z,99.48
2023-05-14T23:27:14.580Z,100.00
2023-05-14T23:29:41.317Z,99.78
2023-05-14T23:32:08.659Z,99.19
2023-05-14T23:34:35.743Z,98.68
2023-05-14T23:37:02.614Z,98.66
2023-05-14T23:39:29.387Z,98.69
2023-05-14T23:41:56.104Z,100.00
2023-05-14T23:44:22.900Z,99.89
2023-05-14T23:46:49.742Z,99.87
2023-05-14T23:49:16.556Z,99.09
2023-05-14T23:51:43.370Z,99.58
2023-05-14T23:54:10.086Z,100.00
2023-05-14T23:56:36.858Z,99.49
2023-05-14T23:59:03.921Z,100.00
